sensor_id;sensor_type;location;lat;lon;timestamp;P1;durP1;ratioP1;P2;durP2;ratioP2
21114;SDS011;10715;48.546;9.896;2023-03-07T00:02:21;12.50;;;6.67;;
21114;SDS011;10715;48.546;9.896;2023-03-07T00:04:46;10.07;;;5.70;;
21114;SDS011;10715;48.546;9.896;2023-03-07T00:07:12;7.90;;;5.00;;
21114;SDS011;10715;48.546;9.896;2023-03-07T00:09:38;11.60;;;5.33;;
21114;SDS011;10715;48.546;9.896;2023-03-07T00:12:04;11.83;;;6.63;;
21114;SDS011;10715;48.546;9.896;2023-03-07T00:14:31;8.87;;;4.80;;
21114;SDS011;10715;48.546;9.896;2023-03-07T00:16:57;8.80;;;5.97;;
21114;SDS011;10715;48.546;9.896;2023-03-07T00:19:23;9.87;;;5.00;;
21114;SDS011;10715;48.546;9.896;2023-03-07T00:21:49;14.50;;;7.03;;
21114;SDS011;10715;48.546;9.896;2023-03-07T00:24:14;9.70;;;6.57;;
21114;SDS011;10715;48.546;9.896;2023-03-07T00:26:40;9.83;;;5.63;;
21114;SDS011;10715;48.546;9.896;2023-03-07T00:29:06;17.40;;;6.53;;
21114;SDS011;10715;48.546;9.896;2023-03-07T00:31:33;8.87;;;5.53;;
21114;SDS011;10715;48.546;9.896;2023-03-07T00:33:59;13.90;;;6.07;;
21114;SDS011;10715;48.546;9.896;2023-03-07T00:36:25;9.97;;;6.13;;
21114;SDS011;10715;48.546;9.896;2023-03-07T00:38:51;10.43;;;4.83;;
21114;SDS011;10715;48.546;9.896;2023-03-07T00:41:18;11.17;;;6.20;;
21114;SDS011;10715;48.546;9.896;2023-03-07T00:43:46;12.10;;;5.90;;
21114;SDS011;10715;48.546;9.896;2023-03-07T00:46:13;10.77;;;4.93;;
21114;SDS011;10715;48.546;9.896;2023-03-07T00:48:40;12.53;;;6.00;;
21114;SDS011;10715;48.546;9.896;2023-03-07T00:51:07;11.20;;;5.90;;
21114;SDS011;10715;48.546;9.896;2023-03-07T00:53:35;14.33;;;6.07;;
21114;SDS011;10715;48.546;9.896;2023-03-07T00:58:31;17.40;;;7.97;;
21114;SDS011;10715;48.546;9.896;2023-03-07T01:00:59;11.83;;;6.53;;
21114;SDS011;10715;48.546;9.896;2023-03-07T01:03:25;9.73;;;6.83;;
21114;SDS011;10715;48.546;9.896;2023-03-07T01:05:51;9.10;;;6.67;;
21114;SDS011;10715;48.546;9.896;2023-03-07T01:08:18;7.03;;;4.93;;
21114;SDS011;10715;48.546;9.896;2023-03-07T01:10:44;9.97;;;5.20;;
21114;SDS011;10715;48.546;9.896;2023-03-07T01:13:13;6.97;;;5.00;;
21114;SDS011;10715;48.546;9.896;2023-03-07T01:15:39;11.50;;;6.30;;
21114;SDS011;10715;48.546;9.896;2023-03-07T01:18:05;8.90;;;5.30;;
21114;SDS011;10715;48.546;9.896;2023-03-07T01:20:32;9.10;;;4.57;;
21114;SDS011;10715;48.546;9.896;2023-03-07T01:23:00;11.10;;;6.10;;
21114;SDS011;10715;48.546;9.896;2023-03-07T01:25:26;7.80;;;5.07;;
21114;SDS011;10715;48.546;9.896;2023-03-07T01:27:53;11.80;;;5.80;;
21114;SDS011;10715;48.546;9.896;2023-03-07T01:30:19;12.93;;;5.37;;
21114;SDS011;10715;48.546;9.896;2023-03-07T01:32:46;8.40;;;4.60;;
21114;SDS011;10715;48.546;9.896;2023-03-07T01:35:13;12.80;;;6.30;;
21114;SDS011;10715;48.546;9.896;2023-03-07T01:37:38;6.30;;;4.47;;
21114;SDS011;10715;48.546;9.896;2023-03-07T01:40:05;8.87;;;4.03;;
21114;SDS011;10715;48.546;9.896;2023-03-07T01:42:31;5.77;;;4.80;;
21114;SDS011;10715;48.546;9.896;2023-03-07T01:45:02;8.67;;;4.53;;
21114;SDS011;10715;48.546;9.896;2023-03-07T01:47:38;13.70;;;5.80;;
21114;SDS011;10715;48.546;9.896;2023-03-07T01:50:05;9.47;;;5.73;;
21114;SDS011;10715;48.546;9.896;2023-03-07T01:52:34;9.43;;;5.33;;
21114;SDS011;10715;48.546;9.896;2023-03-07T01:55:05;11.23;;;6.67;;
21114;SDS011;10715;48.546;9.896;2023-03-07T01:57:38;9.37;;;5.30;;
21114;SDS011;10715;48.546;9.896;2023-03-07T02:00:07;15.00;;;5.83;;
21114;SDS011;10715;48.546;9.896;2023-03-07T02:02:39;8.40;;;5.90;;
21114;SDS011;10715;48.546;9.896;2023-03-07T02:05:26;11.07;;;4.90;;
21114;SDS011;10715;48.546;9.896;2023-03-07T02:07:58;10.33;;;6.03;;
21114;SDS011;10715;48.546;9.896;2023-03-07T02:10:25;10.10;;;5.77;;
21114;SDS011;10715;48.546;9.896;2023-03-07T02:12:52;9.27;;;5.03;;
21114;SDS011;10715;48.546;9.896;2023-03-07T02:15:18;13.50;;;5.67;;
21114;SDS011;10715;48.546;9.896;2023-03-07T02:17:44;9.50;;;5.90;;
21114;SDS011;10715;48.546;9.896;2023-03-07T02:20:31;13.67;;;5.80;;
21114;SDS011;10715;48.546;9.896;2023-03-07T02:22:58;11.30;;;6.80;;
21114;SDS011;10715;48.546;9.896;2023-03-07T02:28:10;12.53;;;6.80;;
21114;SDS011;10715;48.546;9.896;2023-03-07T02:30:51;10.00;;;6.07;;
21114;SDS011;10715;48.546;9.896;2023-03-07T02:33:21;11.90;;;6.57;;
21114;SDS011;10715;48.546;9.896;2023-03-07T02:35:53;12.43;;;5.23;;
21114;SDS011;10715;48.546;9.896;2023-03-07T02:38:22;12.87;;;6.97;;
21114;SDS011;10715;48.546;9.896;2023-03-07T02:40:48;15.80;;;7.07;;
21114;SDS011;10715;48.546;9.896;2023-03-07T02:43:16;10.13;;;6.00;;
21114;SDS011;10715;48.546;9.896;2023-03-07T02:45:42;12.17;;;5.87;;
21114;SDS011;10715;48.546;9.896;2023-03-07T02:48:08;12.10;;;5.83;;
21114;SDS011;10715;48.546;9.896;2023-03-07T02:50:33;10.70;;;5.60;;
21114;SDS011;10715;48.546;9.896;2023-03-07T02:53:00;7.07;;;4.93;;
21114;SDS011;10715;48.546;9.896;2023-03-07T02:55:26;9.80;;;6.20;;
21114;SDS011;10715;48.546;9.896;2023-03-07T02:57:52;13.13;;;4.53;;
21114;SDS011;10715;48.546;9.896;2023-03-07T03:00:18;9.17;;;5.57;;
21114;SDS011;10715;48.546;9.896;2023-03-07T03:02:44;11.13;;;5.90;;
21114;SDS011;10715;48.546;9.896;2023-03-07T03:05:10;11.97;;;6.23;;
21114;SDS011;10715;48.546;9.896;2023-03-07T03:07:36;11.60;;;6.87;;
21114;SDS011;10715;48.546;9.896;2023-03-07T03:10:02;9.60;;;5.47;;
21114;SDS011;10715;48.546;9.896;2023-03-07T03:12:28;6.80;;;5.90;;
21114;SDS011;10715;48.546;9.896;2023-03-07T03:14:54;10.30;;;6.07;;
21114;SDS011;10715;48.546;9.896;2023-03-07T03:17:20;13.63;;;6.83;;
21114;SDS011;10715;48.546;9.896;2023-03-07T03:19:45;10.63;;;6.17;;
21114;SDS011;10715;48.546;9.896;2023-03-07T03:22:11;8.03;;;5.50;;
21114;SDS011;10715;48.546;9.896;2023-03-07T03:24:38;11.53;;;5.60;;
21114;SDS011;10715;48.546;9.896;2023-03-07T03:27:04;13.73;;;6.43;;
21114;SDS011;10715;48.546;9.896;2023-03-07T03:29:30;9.67;;;5.50;;
21114;SDS011;10715;48.546;9.896;2023-03-07T03:31:56;11.93;;;5.57;;
21114;SDS011;10715;48.546;9.896;2023-03-07T03:34:21;8.67;;;5.77;;
21114;SDS011;10715;48.546;9.896;2023-03-07T03:36:47;9.67;;;4.97;;
21114;SDS011;10715;48.546;9.896;2023-03-07T03:39:13;8.73;;;6.10;;
21114;SDS011;10715;48.546;9.896;2023-03-07T03:41:39;8.80;;;4.97;;
21114;SDS011;10715;48.546;9.896;2023-03-07T03:44:04;8.67;;;4.97;;
21114;SDS011;10715;48.546;9.896;2023-03-07T03:46:30;9.70;;;6.00;;
21114;SDS011;10715;48.546;9.896;2023-03-07T03:48:56;12.00;;;6.10;;
21114;SDS011;10715;48.546;9.896;2023-03-07T03:51:22;11.00;;;5.87;;
21114;SDS011;10715;48.546;9.896;2023-03-07T03:53:48;6.87;;;5.60;;
21114;SDS011;10715;48.546;9.896;2023-03-07T03:56:16;7.37;;;4.83;;
21114;SDS011;10715;48.546;9.896;2023-03-07T03:58:45;8.50;;;5.57;;
21114;SDS011;10715;48.546;9.896;2023-03-07T04:01:16;11.87;;;6.50;;
21114;SDS011;10715;48.546;9.896;2023-03-07T04:03:44;15.53;;;6.10;;
21114;SDS011;10715;48.546;9.896;2023-03-07T04:06:15;10.43;;;6.00;;
21114;SDS011;10715;48.546;9.896;2023-03-07T04:09:01;10.80;;;6.00;;
21114;SDS011;10715;48.546;9.896;2023-03-07T04:11:29;12.87;;;5.10;;
21114;SDS011;10715;48.546;9.896;2023-03-07T04:13:54;9.53;;;5.03;;
21114;SDS011;10715;48.546;9.896;2023-03-07T04:16:20;6.57;;;5.80;;
21114;SDS011;10715;48.546;9.896;2023-03-07T04:18:49;7.93;;;4.67;;
21114;SDS011;10715;48.546;9.896;2023-03-07T04:21:16;9.23;;;5.40;;
21114;SDS011;10715;48.546;9.896;2023-03-07T04:23:42;6.77;;;5.50;;
21114;SDS011;10715;48.546;9.896;2023-03-07T04:26:09;11.17;;;6.07;;
21114;SDS011;10715;48.546;9.896;2023-03-07T04:28:36;8.83;;;5.73;;
21114;SDS011;10715;48.546;9.896;2023-03-07T04:31:13;7.47;;;6.00;;
21114;SDS011;10715;48.546;9.896;2023-03-07T04:33:41;6.37;;;5.50;;
21114;SDS011;10715;48.546;9.896;2023-03-07T04:36:07;6.07;;;3.80;;
21114;SDS011;10715;48.546;9.896;2023-03-07T04:38:34;7.57;;;4.80;;
21114;SDS011;10715;48.546;9.896;2023-03-07T04:41:02;8.23;;;4.97;;
21114;SDS011;10715;48.546;9.896;2023-03-07T04:43:28;7.60;;;4.30;;
21114;SDS011;10715;48.546;9.896;2023-03-07T04:45:53;14.97;;;6.50;;
21114;SDS011;10715;48.546;9.896;2023-03-07T04:48:19;8.37;;;5.07;;
21114;SDS011;10715;48.546;9.896;2023-03-07T04:50:47;7.73;;;4.70;;
21114;SDS011;10715;48.546;9.896;2023-03-07T04:53:14;11.60;;;5.80;;
21114;SDS011;10715;48.546;9.896;2023-03-07T04:55:40;15.23;;;5.30;;
21114;SDS011;10715;48.546;9.896;2023-03-07T04:58:06;8.57;;;5.17;;
21114;SDS011;10715;48.546;9.896;2023-03-07T05:00:36;6.53;;;4.77;;
21114;SDS011;10715;48.546;9.896;2023-03-07T05:03:03;7.77;;;5.17;;
21114;SDS011;10715;48.546;9.896;2023-03-07T05:05:29;9.80;;;5.27;;
21114;SDS011;10715;48.546;9.896;2023-03-07T05:07:54;9.10;;;4.80;;
21114;SDS011;10715;48.546;9.896;2023-03-07T05:10:20;9.07;;;5.77;;
21114;SDS011;10715;48.546;9.896;2023-03-07T05:12:46;9.63;;;4.83;;
21114;SDS011;10715;48.546;9.896;2023-03-07T05:15:11;10.20;;;5.60;;
21114;SDS011;10715;48.546;9.896;2023-03-07T05:17:37;10.77;;;5.27;;
21114;SDS011;10715;48.546;9.896;2023-03-07T05:20:03;8.50;;;5.40;;
21114;SDS011;10715;48.546;9.896;2023-03-07T05:22:29;12.03;;;7.10;;
21114;SDS011;10715;48.546;9.896;2023-03-07T05:24:55;12.07;;;6.37;;
21114;SDS011;10715;48.546;9.896;2023-03-07T05:27:22;9.27;;;4.80;;
21114;SDS011;10715;48.546;9.896;2023-03-07T05:29:48;13.63;;;5.97;;
21114;SDS011;10715;48.546;9.896;2023-03-07T05:32:13;7.97;;;4.60;;
21114;SDS011;10715;48.546;9.896;2023-03-07T05:34:39;11.97;;;5.00;;
21114;SDS011;10715;48.546;9.896;2023-03-07T05:37:05;9.67;;;5.27;;
21114;SDS011;10715;48.546;9.896;2023-03-07T05:39:30;9.13;;;4.33;;
21114;SDS011;10715;48.546;9.896;2023-03-07T05:41:56;8.87;;;4.93;;
21114;SDS011;10715;48.546;9.896;2023-03-07T05:44:22;7.83;;;5.00;;
21114;SDS011;10715;48.546;9.896;2023-03-07T05:46:47;18.83;;;6.47;;
21114;SDS011;10715;48.546;9.896;2023-03-07T05:49:13;7.77;;;4.20;;
21114;SDS011;10715;48.546;9.896;2023-03-07T05:51:39;14.97;;;6.30;;
21114;SDS011;10715;48.546;9.896;2023-03-07T05:54:05;14.60;;;4.37;;
21114;SDS011;10715;48.546;9.896;2023-03-07T05:56:30;10.23;;;5.13;;
21114;SDS011;10715;48.546;9.896;2023-03-07T05:58:56;8.90;;;5.10;;
21114;SDS011;10715;48.546;9.896;2023-03-07T06:01:22;8.57;;;4.17;;
21114;SDS011;10715;48.546;9.896;2023-03-07T06:03:48;12.00;;;5.03;;
21114;SDS011;10715;48.546;9.896;2023-03-07T06:06:13;11.00;;;5.20;;
21114;SDS011;10715;48.546;9.896;2023-03-07T06:08:39;7.90;;;4.40;;
21114;SDS011;10715;48.546;9.896;2023-03-07T06:11:05;9.53;;;5.70;;
21114;SDS011;10715;48.546;9.896;2023-03-07T06:13:31;7.03;;;4.57;;
21114;SDS011;10715;48.546;9.896;2023-03-07T06:15:56;8.43;;;3.80;;
21114;SDS011;10715;48.546;9.896;2023-03-07T06:18:22;5.93;;;4.20;;
21114;SDS011;10715;48.546;9.896;2023-03-07T06:21:23;8.20;;;5.10;;
21114;SDS011;10715;48.546;9.896;2023-03-07T06:23:43;9.60;;;4.90;;
21114;SDS011;10715;48.546;9.896;2023-03-07T06:26:09;7.83;;;4.10;;
21114;SDS011;10715;48.546;9.896;2023-03-07T06:28:36;8.13;;;4.80;;
21114;SDS011;10715;48.546;9.896;2023-03-07T06:31:07;14.10;;;6.00;;
21114;SDS011;10715;48.546;9.896;2023-03-07T06:33:37;10.30;;;6.20;;
21114;SDS011;10715;48.546;9.896;2023-03-07T06:36:07;13.00;;;4.13;;
21114;SDS011;10715;48.546;9.896;2023-03-07T06:38:35;5.90;;;3.80;;
21114;SDS011;10715;48.546;9.896;2023-03-07T06:41:00;4.70;;;4.20;;
21114;SDS011;10715;48.546;9.896;2023-03-07T06:43:26;9.00;;;4.90;;
21114;SDS011;10715;48.546;9.896;2023-03-07T06:45:52;6.03;;;4.80;;
21114;SDS011;10715;48.546;9.896;2023-03-07T06:48:18;13.17;;;5.57;;
21114;SDS011;10715;48.546;9.896;2023-03-07T06:50:44;6.87;;;4.67;;
21114;SDS011;10715;48.546;9.896;2023-03-07T06:53:10;9.27;;;4.90;;
21114;SDS011;10715;48.546;9.896;2023-03-07T06:55:35;11.17;;;4.47;;
21114;SDS011;10715;48.546;9.896;2023-03-07T06:58:01;7.63;;;3.77;;
21114;SDS011;10715;48.546;9.896;2023-03-07T07:00:27;10.40;;;3.80;;
21114;SDS011;10715;48.546;9.896;2023-03-07T07:02:53;5.63;;;4.13;;
21114;SDS011;10715;48.546;9.896;2023-03-07T07:05:19;8.20;;;5.07;;
21114;SDS011;10715;48.546;9.896;2023-03-07T07:07:45;5.47;;;3.50;;
21114;SDS011;10715;48.546;9.896;2023-03-07T07:10:11;8.03;;;4.93;;
21114;SDS011;10715;48.546;9.896;2023-03-07T07:12:37;6.60;;;5.13;;
21114;SDS011;10715;48.546;9.896;2023-03-07T07:15:02;9.13;;;4.67;;
21114;SDS011;10715;48.546;9.896;2023-03-07T07:17:30;7.17;;;4.43;;
21114;SDS011;10715;48.546;9.896;2023-03-07T07:19:56;6.43;;;4.97;;
21114;SDS011;10715;48.546;9.896;2023-03-07T07:22:22;7.37;;;3.90;;
21114;SDS011;10715;48.546;9.896;2023-03-07T07:24:48;14.47;;;4.43;;
21114;SDS011;10715;48.546;9.896;2023-03-07T07:27:14;7.00;;;4.43;;
21114;SDS011;10715;48.546;9.896;2023-03-07T07:29:40;12.13;;;4.67;;
21114;SDS011;10715;48.546;9.896;2023-03-07T07:32:05;7.90;;;4.10;;
21114;SDS011;10715;48.546;9.896;2023-03-07T07:34:31;6.20;;;4.00;;
21114;SDS011;10715;48.546;9.896;2023-03-07T07:36:57;6.23;;;4.00;;
21114;SDS011;10715;48.546;9.896;2023-03-07T07:39:23;8.30;;;4.73;;
21114;SDS011;10715;48.546;9.896;2023-03-07T07:41:49;10.93;;;3.50;;
21114;SDS011;10715;48.546;9.896;2023-03-07T07:44:14;8.27;;;5.23;;
21114;SDS011;10715;48.546;9.896;2023-03-07T07:46:40;6.97;;;4.23;;
21114;SDS011;10715;48.546;9.896;2023-03-07T07:49:06;5.83;;;3.63;;
21114;SDS011;10715;48.546;9.896;2023-03-07T07:51:32;11.60;;;5.47;;
21114;SDS011;10715;48.546;9.896;2023-03-07T07:53:58;5.33;;;4.83;;
21114;SDS011;10715;48.546;9.896;2023-03-07T07:56:24;11.70;;;4.93;;
21114;SDS011;10715;48.546;9.896;2023-03-07T07:58:49;11.83;;;4.60;;
21114;SDS011;10715;48.546;9.896;2023-03-07T08:01:20;4.20;;;3.40;;
21114;SDS011;10715;48.546;9.896;2023-03-07T08:03:47;7.83;;;3.60;;
21114;SDS011;10715;48.546;9.896;2023-03-07T08:06:17;9.20;;;4.43;;
21114;SDS011;10715;48.546;9.896;2023-03-07T08:08:44;6.97;;;4.60;;
21114;SDS011;10715;48.546;9.896;2023-03-07T08:11:10;7.33;;;4.80;;
21114;SDS011;10715;48.546;9.896;2023-03-07T08:13:35;8.07;;;4.80;;
21114;SDS011;10715;48.546;9.896;2023-03-07T08:16:11;8.33;;;4.50;;
21114;SDS011;10715;48.546;9.896;2023-03-07T08:18:41;10.83;;;5.13;;
21114;SDS011;10715;48.546;9.896;2023-03-07T08:21:11;11.00;;;5.13;;
21114;SDS011;10715;48.546;9.896;2023-03-07T08:23:37;11.50;;;3.97;;
21114;SDS011;10715;48.546;9.896;2023-03-07T08:26:04;7.03;;;4.30;;
21114;SDS011;10715;48.546;9.896;2023-03-07T08:28:31;7.80;;;3.90;;
21114;SDS011;10715;48.546;9.896;2023-03-07T08:30:57;13.10;;;4.93;;
21114;SDS011;10715;48.546;9.896;2023-03-07T08:33:22;5.87;;;5.07;;
21114;SDS011;10715;48.546;9.896;2023-03-07T08:35:48;8.13;;;4.30;;
21114;SDS011;10715;48.546;9.896;2023-03-07T08:38:14;6.33;;;5.00;;
21114;SDS011;10715;48.546;9.896;2023-03-07T08:40:40;6.03;;;4.30;;
21114;SDS011;10715;48.546;9.896;2023-03-07T08:43:05;4.93;;;4.17;;
21114;SDS011;10715;48.546;9.896;2023-03-07T08:45:31;8.13;;;3.73;;
21114;SDS011;10715;48.546;9.896;2023-03-07T08:47:57;5.10;;;3.77;;
21114;SDS011;10715;48.546;9.896;2023-03-07T08:50:24;4.70;;;2.93;;
21114;SDS011;10715;48.546;9.896;2023-03-07T08:52:51;6.73;;;4.13;;
21114;SDS011;10715;48.546;9.896;2023-03-07T08:55:17;13.33;;;5.07;;
21114;SDS011;10715;48.546;9.896;2023-03-07T08:57:43;5.03;;;3.77;;
21114;SDS011;10715;48.546;9.896;2023-03-07T09:00:12;4.03;;;2.90;;
21114;SDS011;10715;48.546;9.896;2023-03-07T09:02:38;9.40;;;3.80;;
21114;SDS011;10715;48.546;9.896;2023-03-07T09:05:04;7.37;;;3.97;;
21114;SDS011;10715;48.546;9.896;2023-03-07T09:07:30;5.53;;;3.07;;
21114;SDS011;10715;48.546;9.896;2023-03-07T09:09:56;10.77;;;3.37;;
21114;SDS011;10715;48.546;9.896;2023-03-07T09:12:22;4.60;;;3.60;;
21114;SDS011;10715;48.546;9.896;2023-03-07T09:14:47;4.77;;;3.73;;
21114;SDS011;10715;48.546;9.896;2023-03-07T09:17:13;5.03;;;3.07;;
21114;SDS011;10715;48.546;9.896;2023-03-07T09:19:39;6.37;;;3.30;;
21114;SDS011;10715;48.546;9.896;2023-03-07T09:22:07;6.67;;;3.20;;
21114;SDS011;10715;48.546;9.896;2023-03-07T09:24:32;5.00;;;3.53;;
21114;SDS011;10715;48.546;9.896;2023-03-07T09:26:58;8.50;;;4.63;;
21114;SDS011;10715;48.546;9.896;2023-03-07T09:29:24;9.60;;;3.70;;
21114;SDS011;10715;48.546;9.896;2023-03-07T09:31:49;7.40;;;3.37;;
21114;SDS011;10715;48.546;9.896;2023-03-07T09:34:15;8.10;;;3.90;;
21114;SDS011;10715;48.546;9.896;2023-03-07T09:36:41;6.47;;;3.40;;
21114;SDS011;10715;48.546;9.896;2023-03-07T09:39:07;6.37;;;3.53;;
21114;SDS011;10715;48.546;9.896;2023-03-07T09:41:45;7.23;;;3.50;;
21114;SDS011;10715;48.546;9.896;2023-03-07T09:47:37;4.00;;;3.07;;
21114;SDS011;10715;48.546;9.896;2023-03-07T09:50:31;4.30;;;3.17;;
21114;SDS011;10715;48.546;9.896;2023-03-07T09:53:00;13.10;;;3.17;;
21114;SDS011;10715;48.546;9.896;2023-03-07T09:55:28;5.53;;;3.03;;
21114;SDS011;10715;48.546;9.896;2023-03-07T09:57:56;4.23;;;3.23;;
21114;SDS011;10715;48.546;9.896;2023-03-07T10:00:25;8.40;;;3.00;;
21114;SDS011;10715;48.546;9.896;2023-03-07T10:03:01;3.33;;;2.37;;
21114;SDS011;10715;48.546;9.896;2023-03-07T10:05:47;6.20;;;3.20;;
21114;SDS011;10715;48.546;9.896;2023-03-07T10:08:16;2.50;;;1.77;;
21114;SDS011;10715;48.546;9.896;2023-03-07T10:23:54;3.20;;;2.57;;
21114;SDS011;10715;48.546;9.896;2023-03-07T10:26:40;3.37;;;2.00;;
21114;SDS011;10715;48.546;9.896;2023-03-07T10:29:22;5.87;;;2.60;;
21114;SDS011;10715;48.546;9.896;2023-03-07T10:31:53;6.30;;;2.53;;
21114;SDS011;10715;48.546;9.896;2023-03-07T10:34:28;3.70;;;2.20;;
21114;SDS011;10715;48.546;9.896;2023-03-07T10:37:09;14.50;;;3.10;;
21114;SDS011;10715;48.546;9.896;2023-03-07T10:39:46;5.10;;;2.97;;
21114;SDS011;10715;48.546;9.896;2023-03-07T10:42:18;2.87;;;2.07;;
21114;SDS011;10715;48.546;9.896;2023-03-07T10:44:46;5.50;;;3.27;;
21114;SDS011;10715;48.546;9.896;2023-03-07T10:47:24;3.67;;;2.50;;
21114;SDS011;10715;48.546;9.896;2023-03-07T10:49:53;2.87;;;2.30;;
21114;SDS011;10715;48.546;9.896;2023-03-07T10:52:39;4.00;;;3.03;;
21114;SDS011;10715;48.546;9.896;2023-03-07T11:06:05;5.20;;;3.33;;
21114;SDS011;10715;48.546;9.896;2023-03-07T11:08:48;3.90;;;2.23;;
21114;SDS011;10715;48.546;9.896;2023-03-07T11:11:20;2.93;;;2.63;;
21114;SDS011;10715;48.546;9.896;2023-03-07T11:14:03;4.90;;;3.03;;
21114;SDS011;10715;48.546;9.896;2023-03-07T11:16:40;6.80;;;4.70;;
21114;SDS011;10715;48.546;9.896;2023-03-07T11:19:52;6.30;;;3.73;;
21114;SDS011;10715;48.546;9.896;2023-03-07T11:25:02;4.47;;;3.40;;
21114;SDS011;10715;48.546;9.896;2023-03-07T11:27:39;10.17;;;5.00;;
21114;SDS011;10715;48.546;9.896;2023-03-07T11:30:23;5.53;;;2.57;;
21114;SDS011;10715;48.546;9.896;2023-03-07T11:33:17;5.30;;;3.70;;
21114;SDS011;10715;48.546;9.896;2023-03-07T11:41:35;5.93;;;3.40;;
21114;SDS011;10715;48.546;9.896;2023-03-07T11:55:03;5.13;;;4.40;;
21114;SDS011;10715;48.546;9.896;2023-03-07T12:12:06;10.47;;;4.57;;
21114;SDS011;10715;48.546;9.896;2023-03-07T12:17:25;6.03;;;3.90;;
21114;SDS011;10715;48.546;9.896;2023-03-07T12:31:06;5.93;;;3.80;;
21114;SDS011;10715;48.546;9.896;2023-03-07T12:42:03;7.10;;;4.50;;
21114;SDS011;10715;48.546;9.896;2023-03-07T12:50:45;6.60;;;4.47;;
21114;SDS011;10715;48.546;9.896;2023-03-07T13:01:22;9.10;;;4.20;;
21114;SDS011;10715;48.546;9.896;2023-03-07T13:04:23;5.80;;;4.30;;
21114;SDS011;10715;48.546;9.896;2023-03-07T13:06:59;11.73;;;4.73;;
21114;SDS011;10715;48.546;9.896;2023-03-07T13:09:31;8.93;;;5.83;;
21114;SDS011;10715;48.546;9.896;2023-03-07T13:14:47;5.73;;;4.53;;
21114;SDS011;10715;48.546;9.896;2023-03-07T13:19:56;3.80;;;3.40;;
21114;SDS011;10715;48.546;9.896;2023-03-07T13:24:55;8.17;;;4.43;;
21114;SDS011;10715;48.546;9.896;2023-03-07T13:27:25;5.20;;;4.00;;
21114;SDS011;10715;48.546;9.896;2023-03-07T13:43:04;10.37;;;5.37;;
21114;SDS011;10715;48.546;9.896;2023-03-07T13:46:02;8.80;;;4.97;;
21114;SDS011;10715;48.546;9.896;2023-03-07T13:51:14;7.77;;;5.17;;
21114;SDS011;10715;48.546;9.896;2023-03-07T13:53:52;6.57;;;4.50;;
21114;SDS011;10715;48.546;9.896;2023-03-07T13:56:25;8.67;;;5.73;;
21114;SDS011;10715;48.546;9.896;2023-03-07T14:07:08;12.07;;;5.07;;
21114;SDS011;10715;48.546;9.896;2023-03-07T14:10:00;13.27;;;6.33;;
21114;SDS011;10715;48.546;9.896;2023-03-07T14:15:12;7.90;;;5.43;;
21114;SDS011;10715;48.546;9.896;2023-03-07T14:26:13;6.27;;;3.90;;
21114;SDS011;10715;48.546;9.896;2023-03-07T14:28:50;12.13;;;5.33;;
21114;SDS011;10715;48.546;9.896;2023-03-07T14:31:22;14.47;;;4.30;;
21114;SDS011;10715;48.546;9.896;2023-03-07T14:33:51;6.67;;;4.13;;
21114;SDS011;10715;48.546;9.896;2023-03-07T14:36:21;8.93;;;4.30;;
21114;SDS011;10715;48.546;9.896;2023-03-07T14:38:56;8.20;;;4.50;;
21114;SDS011;10715;48.546;9.896;2023-03-07T14:51:45;7.67;;;3.90;;
21114;SDS011;10715;48.546;9.896;2023-03-07T14:54:20;5.20;;;3.33;;
21114;SDS011;10715;48.546;9.896;2023-03-07T14:56:49;7.10;;;4.80;;
21114;SDS011;10715;48.546;9.896;2023-03-07T14:59:17;6.87;;;4.20;;
21114;SDS011;10715;48.546;9.896;2023-03-07T15:01:43;8.47;;;3.73;;
21114;SDS011;10715;48.546;9.896;2023-03-07T15:06:55;5.87;;;4.37;;
21114;SDS011;10715;48.546;9.896;2023-03-07T15:09:25;9.00;;;3.87;;
21114;SDS011;10715;48.546;9.896;2023-03-07T15:11:58;6.37;;;3.90;;
21114;SDS011;10715;48.546;9.896;2023-03-07T15:14:31;7.63;;;4.00;;
21114;SDS011;10715;48.546;9.896;2023-03-07T15:17:04;4.10;;;3.53;;
21114;SDS011;10715;48.546;9.896;2023-03-07T15:19:38;4.60;;;3.43;;
21114;SDS011;10715;48.546;9.896;2023-03-07T15:22:24;5.60;;;3.10;;
21114;SDS011;10715;48.546;9.896;2023-03-07T15:24:51;5.50;;;3.33;;
21114;SDS011;10715;48.546;9.896;2023-03-07T15:27:19;3.47;;;2.63;;
21114;SDS011;10715;48.546;9.896;2023-03-07T15:29:50;3.97;;;3.47;;
21114;SDS011;10715;48.546;9.896;2023-03-07T15:35:11;4.60;;;3.03;;
21114;SDS011;10715;48.546;9.896;2023-03-07T15:37:51;3.73;;;2.90;;
21114;SDS011;10715;48.546;9.896;2023-03-07T15:42:52;3.63;;;3.33;;
21114;SDS011;10715;48.546;9.896;2023-03-07T15:45:29;3.60;;;2.70;;
21114;SDS011;10715;48.546;9.896;2023-03-07T15:47:55;4.37;;;3.43;;
21114;SDS011;10715;48.546;9.896;2023-03-07T15:50:24;2.70;;;2.50;;
21114;SDS011;10715;48.546;9.896;2023-03-07T15:52:51;6.97;;;4.80;;
21114;SDS011;10715;48.546;9.896;2023-03-07T15:55:21;6.83;;;6.13;;
21114;SDS011;10715;48.546;9.896;2023-03-07T15:57:50;5.77;;;4.57;;
21114;SDS011;10715;48.546;9.896;2023-03-07T16:00:31;41.10;;;18.60;;
21114;SDS011;10715;48.546;9.896;2023-03-07T16:05:54;19.93;;;11.30;;
21114;SDS011;10715;48.546;9.896;2023-03-07T16:08:21;4.47;;;3.13;;
21114;SDS011;10715;48.546;9.896;2023-03-07T16:10:51;3.87;;;3.17;;
21114;SDS011;10715;48.546;9.896;2023-03-07T16:13:26;8.47;;;5.80;;
21114;SDS011;10715;48.546;9.896;2023-03-07T16:15:58;3.60;;;2.63;;
21114;SDS011;10715;48.546;9.896;2023-03-07T16:18:26;5.27;;;2.57;;
21114;SDS011;10715;48.546;9.896;2023-03-07T16:20:53;2.80;;;2.33;;
21114;SDS011;10715;48.546;9.896;2023-03-07T16:23:19;4.00;;;2.67;;
21114;SDS011;10715;48.546;9.896;2023-03-07T16:25:44;3.10;;;2.30;;
21114;SDS011;10715;48.546;9.896;2023-03-07T16:28:11;4.43;;;3.10;;
21114;SDS011;10715;48.546;9.896;2023-03-07T16:30:37;5.47;;;3.20;;
21114;SDS011;10715;48.546;9.896;2023-03-07T16:33:10;4.53;;;2.30;;
21114;SDS011;10715;48.546;9.896;2023-03-07T16:35:37;2.90;;;1.80;;
21114;SDS011;10715;48.546;9.896;2023-03-07T16:38:03;8.60;;;4.93;;
21114;SDS011;10715;48.546;9.896;2023-03-07T16:40:30;4.97;;;2.83;;
21114;SDS011;10715;48.546;9.896;2023-03-07T16:42:56;1.87;;;1.63;;
21114;SDS011;10715;48.546;9.896;2023-03-07T16:45:24;2.00;;;1.67;;
21114;SDS011;10715;48.546;9.896;2023-03-07T16:47:52;2.30;;;1.57;;
21114;SDS011;10715;48.546;9.896;2023-03-07T16:50:20;4.23;;;2.00;;
21114;SDS011;10715;48.546;9.896;2023-03-07T16:52:51;5.80;;;2.40;;
21114;SDS011;10715;48.546;9.896;2023-03-07T16:55:17;4.97;;;3.60;;
21114;SDS011;10715;48.546;9.896;2023-03-07T16:57:44;3.00;;;2.70;;
21114;SDS011;10715;48.546;9.896;2023-03-07T17:00:16;4.87;;;4.40;;
21114;SDS011;10715;48.546;9.896;2023-03-07T17:02:44;7.30;;;3.40;;
21114;SDS011;10715;48.546;9.896;2023-03-07T17:05:21;9.83;;;4.73;;
21114;SDS011;10715;48.546;9.896;2023-03-07T17:07:55;25.37;;;7.07;;
21114;SDS011;10715;48.546;9.896;2023-03-07T17:10:22;10.60;;;4.93;;
21114;SDS011;10715;48.546;9.896;2023-03-07T17:12:50;8.37;;;4.57;;
21114;SDS011;10715;48.546;9.896;2023-03-07T17:15:19;6.10;;;3.27;;
21114;SDS011;10715;48.546;9.896;2023-03-07T17:17:46;4.70;;;3.60;;
21114;SDS011;10715;48.546;9.896;2023-03-07T17:20:13;7.00;;;3.47;;
21114;SDS011;10715;48.546;9.896;2023-03-07T17:22:41;11.83;;;3.10;;
21114;SDS011;10715;48.546;9.896;2023-03-07T17:25:07;6.60;;;2.53;;
21114;SDS011;10715;48.546;9.896;2023-03-07T17:27:36;5.57;;;3.30;;
21114;SDS011;10715;48.546;9.896;2023-03-07T17:30:08;2.63;;;1.83;;
21114;SDS011;10715;48.546;9.896;2023-03-07T17:32:38;3.00;;;2.00;;
21114;SDS011;10715;48.546;9.896;2023-03-07T17:35:05;2.47;;;1.70;;
21114;SDS011;10715;48.546;9.896;2023-03-07T17:37:33;7.50;;;2.30;;
21114;SDS011;10715;48.546;9.896;2023-03-07T17:40:00;4.73;;;2.90;;
21114;SDS011;10715;48.546;9.896;2023-03-07T17:42:26;6.40;;;2.07;;